sensor_id;sensor_type;location;lat;lon;timestamp;P1;durP1;ratioP1;P2;durP2;ratioP2
48241;SDS011;34041;51.812;4.622;2022-12-05T00:01:55;20.05;;;14.93;;
48241;SDS011;34041;51.812;4.622;2022-12-05T00:04:55;25.77;;;18.77;;
48241;SDS011;34041;51.812;4.622;2022-12-05T00:07:55;20.10;;;16.53;;
48241;SDS011;34041;51.812;4.622;2022-12-05T00:10:56;22.87;;;17.30;;
48241;SDS011;34041;51.812;4.622;2022-12-05T00:13:56;22.97;;;17.00;;
48241;SDS011;34041;51.812;4.622;2022-12-05T00:16:57;20.95;;;16.50;;
48241;SDS011;34041;51.812;4.622;2022-12-05T00:19:57;20.80;;;14.97;;
48241;SDS011;34041;51.812;4.622;2022-12-05T00:22:57;21.50;;;17.65;;
48241;SDS011;34041;51.812;4.622;2022-12-05T00:26:00;20.37;;;16.30;;
48241;SDS011;34041;51.812;4.622;2022-12-05T00:29:01;19.90;;;15.38;;
48241;SDS011;34041;51.812;4.622;2022-12-05T00:32:01;20.45;;;17.23;;
48241;SDS011;34041;51.812;4.622;2022-12-05T00:35:01;21.33;;;15.98;;
48241;SDS011;34041;51.812;4.622;2022-12-05T00:38:01;22.67;;;17.00;;
48241;SDS011;34041;51.812;4.622;2022-12-05T00:41:05;24.95;;;18.15;;
48241;SDS011;34041;51.812;4.622;2022-12-05T00:44:07;22.08;;;16.67;;
48241;SDS011;34041;51.812;4.622;2022-12-05T00:47:07;24.35;;;17.58;;
48241;SDS011;34041;51.812;4.622;2022-12-05T00:50:07;22.40;;;16.55;;
48241;SDS011;34041;51.812;4.622;2022-12-05T00:53:08;23.40;;;17.73;;
48241;SDS011;34041;51.812;4.622;2022-12-05T00:56:09;23.20;;;17.27;;
48241;SDS011;34041;51.812;4.622;2022-12-05T00:59:14;21.08;;;16.25;;
48241;SDS011;34041;51.812;4.622;2022-12-05T01:02:15;23.08;;;17.52;;
48241;SDS011;34041;51.812;4.622;2022-12-05T01:05:16;22.53;;;15.90;;
48241;SDS011;34041;51.812;4.622;2022-12-05T01:08:16;24.27;;;18.20;;
48241;SDS011;34041;51.812;4.622;2022-12-05T01:11:17;23.42;;;18.10;;
48241;SDS011;34041;51.812;4.622;2022-12-05T01:14:18;23.88;;;18.52;;
48241;SDS011;34041;51.812;4.622;2022-12-05T01:17:18;21.45;;;17.27;;
48241;SDS011;34041;51.812;4.622;2022-12-05T01:20:19;19.77;;;15.50;;
48241;SDS011;34041;51.812;4.622;2022-12-05T01:23:19;23.02;;;17.70;;
48241;SDS011;34041;51.812;4.622;2022-12-05T01:26:20;20.02;;;16.15;;
48241;SDS011;34041;51.812;4.622;2022-12-05T01:29:21;21.92;;;16.60;;
48241;SDS011;34041;51.812;4.622;2022-12-05T01:32:21;22.25;;;16.83;;
48241;SDS011;34041;51.812;4.622;2022-12-05T01:35:21;20.35;;;16.35;;
48241;SDS011;34041;51.812;4.622;2022-12-05T01:38:22;19.92;;;16.95;;
48241;SDS011;34041;51.812;4.622;2022-12-05T01:41:24;19.98;;;16.48;;
48241;SDS011;34041;51.812;4.622;2022-12-05T01:47:25;22.17;;;17.10;;
48241;SDS011;34041;51.812;4.622;2022-12-05T01:50:27;22.73;;;16.73;;
48241;SDS011;34041;51.812;4.622;2022-12-05T01:53:27;19.75;;;15.80;;
48241;SDS011;34041;51.812;4.622;2022-12-05T01:56:28;21.38;;;16.92;;
48241;SDS011;34041;51.812;4.622;2022-12-05T01:59:32;19.35;;;16.90;;
48241;SDS011;34041;51.812;4.622;2022-12-05T02:02:33;19.35;;;15.50;;
48241;SDS011;34041;51.812;4.622;2022-12-05T02:05:34;20.57;;;15.13;;
48241;SDS011;34041;51.812;4.622;2022-12-05T02:08:34;19.52;;;15.88;;
48241;SDS011;34041;51.812;4.622;2022-12-05T02:11:35;18.63;;;14.82;;
48241;SDS011;34041;51.812;4.622;2022-12-05T02:24:07;17.80;;;15.45;;
48241;SDS011;34041;51.812;4.622;2022-12-05T02:27:16;21.52;;;15.75;;
48241;SDS011;34041;51.812;4.622;2022-12-05T02:30:21;18.00;;;15.15;;
48241;SDS011;34041;51.812;4.622;2022-12-05T02:33:33;19.20;;;16.25;;
48241;SDS011;34041;51.812;4.622;2022-12-05T02:43:15;21.88;;;17.58;;
48241;SDS011;34041;51.812;4.622;2022-12-05T02:46:18;19.30;;;14.90;;
48241;SDS011;34041;51.812;4.622;2022-12-05T02:49:21;20.20;;;16.35;;
48241;SDS011;34041;51.812;4.622;2022-12-05T02:52:22;19.35;;;15.90;;
48241;SDS011;34041;51.812;4.622;2022-12-05T02:55:23;20.48;;;15.10;;
48241;SDS011;34041;51.812;4.622;2022-12-05T02:58:35;20.17;;;16.77;;
48241;SDS011;34041;51.812;4.622;2022-12-05T03:01:37;17.95;;;15.48;;
48241;SDS011;34041;51.812;4.622;2022-12-05T03:04:38;18.77;;;14.75;;
48241;SDS011;34041;51.812;4.622;2022-12-05T03:07:38;19.93;;;16.10;;
48241;SDS011;34041;51.812;4.622;2022-12-05T03:10:39;21.45;;;16.30;;
48241;SDS011;34041;51.812;4.622;2022-12-05T03:13:43;21.13;;;15.32;;
48241;SDS011;34041;51.812;4.622;2022-12-05T03:16:45;19.67;;;16.63;;
48241;SDS011;34041;51.812;4.622;2022-12-05T03:19:58;19.30;;;15.23;;
48241;SDS011;34041;51.812;4.622;2022-12-05T03:23:08;18.98;;;15.55;;
48241;SDS011;34041;51.812;4.622;2022-12-05T03:26:15;18.70;;;15.30;;
48241;SDS011;34041;51.812;4.622;2022-12-05T03:38:44;21.52;;;16.08;;
48241;SDS011;34041;51.812;4.622;2022-12-05T03:45:00;17.08;;;14.13;;
48241;SDS011;34041;51.812;4.622;2022-12-05T03:48:17;19.38;;;15.02;;
48241;SDS011;34041;51.812;4.622;2022-12-05T03:51:22;22.13;;;15.52;;
48241;SDS011;34041;51.812;4.622;2022-12-05T03:54:24;16.75;;;14.95;;
48241;SDS011;34041;51.812;4.622;2022-12-05T03:57:26;19.67;;;15.35;;
48241;SDS011;34041;51.812;4.622;2022-12-05T04:00:28;19.73;;;15.13;;
48241;SDS011;34041;51.812;4.622;2022-12-05T04:03:41;17.88;;;14.50;;
48241;SDS011;34041;51.812;4.622;2022-12-05T04:06:43;17.73;;;13.93;;
48241;SDS011;34041;51.812;4.622;2022-12-05T04:09:46;16.40;;;14.52;;
48241;SDS011;34041;51.812;4.622;2022-12-05T04:12:48;19.70;;;15.67;;
48241;SDS011;34041;51.812;4.622;2022-12-05T04:15:55;19.98;;;15.93;;
48241;SDS011;34041;51.812;4.622;2022-12-05T04:23:00;19.33;;;14.52;;
48241;SDS011;34041;51.812;4.622;2022-12-05T04:26:02;19.75;;;14.60;;
48241;SDS011;34041;51.812;4.622;2022-12-05T04:29:07;19.55;;;13.98;;
48241;SDS011;34041;51.812;4.622;2022-12-05T04:32:10;20.02;;;14.82;;
48241;SDS011;34041;51.812;4.622;2022-12-05T04:35:19;18.65;;;15.40;;
48241;SDS011;34041;51.812;4.622;2022-12-05T04:38:24;15.77;;;13.60;;
48241;SDS011;34041;51.812;4.622;2022-12-05T04:41:27;17.75;;;14.32;;
48241;SDS011;34041;51.812;4.622;2022-12-05T04:44:34;18.05;;;14.40;;
48241;SDS011;34041;51.812;4.622;2022-12-05T04:47:38;19.33;;;14.38;;
48241;SDS011;34041;51.812;4.622;2022-12-05T04:50:40;19.10;;;15.00;;
48241;SDS011;34041;51.812;4.622;2022-12-05T04:53:41;17.45;;;13.75;;
48241;SDS011;34041;51.812;4.622;2022-12-05T04:56:43;16.92;;;14.30;;
48241;SDS011;34041;51.812;4.622;2022-12-05T04:59:45;20.08;;;14.52;;
48241;SDS011;34041;51.812;4.622;2022-12-05T05:02:49;18.27;;;13.85;;
48241;SDS011;34041;51.812;4.622;2022-12-05T05:05:50;19.08;;;14.52;;
48241;SDS011;34041;51.812;4.622;2022-12-05T05:08:54;17.17;;;14.10;;
48241;SDS011;34041;51.812;4.622;2022-12-05T05:11:54;14.93;;;12.40;;
48241;SDS011;34041;51.812;4.622;2022-12-05T05:14:54;16.33;;;13.17;;
48241;SDS011;34041;51.812;4.622;2022-12-05T05:17:54;17.40;;;14.13;;
48241;SDS011;34041;51.812;4.622;2022-12-05T05:20:55;17.27;;;13.83;;
48241;SDS011;34041;51.812;4.622;2022-12-05T05:23:55;16.73;;;13.25;;
48241;SDS011;34041;51.812;4.622;2022-12-05T05:26:56;13.68;;;11.77;;
48241;SDS011;34041;51.812;4.622;2022-12-05T05:29:56;15.57;;;12.67;;
48241;SDS011;34041;51.812;4.622;2022-12-05T05:32:57;17.53;;;13.70;;
48241;SDS011;34041;51.812;4.622;2022-12-05T05:36:05;15.45;;;13.07;;
48241;SDS011;34041;51.812;4.622;2022-12-05T05:39:05;16.80;;;13.63;;
48241;SDS011;34041;51.812;4.622;2022-12-05T05:42:09;16.20;;;12.53;;
48241;SDS011;34041;51.812;4.622;2022-12-05T05:45:10;14.23;;;11.27;;
48241;SDS011;34041;51.812;4.622;2022-12-05T05:48:11;14.50;;;12.75;;
48241;SDS011;34041;51.812;4.622;2022-12-05T05:51:12;14.97;;;13.23;;
48241;SDS011;34041;51.812;4.622;2022-12-05T05:54:12;17.38;;;13.60;;
48241;SDS011;34041;51.812;4.622;2022-12-05T05:57:12;17.92;;;13.82;;
48241;SDS011;34041;51.812;4.622;2022-12-05T06:00:13;15.20;;;12.23;;
48241;SDS011;34041;51.812;4.622;2022-12-05T06:03:13;15.45;;;12.73;;
48241;SDS011;34041;51.812;4.622;2022-12-05T06:06:14;16.83;;;14.63;;
48241;SDS011;34041;51.812;4.622;2022-12-05T06:09:14;15.67;;;13.30;;
48241;SDS011;34041;51.812;4.622;2022-12-05T06:12:14;15.17;;;13.40;;
48241;SDS011;34041;51.812;4.622;2022-12-05T06:15:14;15.20;;;12.67;;
48241;SDS011;34041;51.812;4.622;2022-12-05T06:18:14;15.80;;;13.13;;
48241;SDS011;34041;51.812;4.622;2022-12-05T06:21:15;17.13;;;13.02;;
48241;SDS011;34041;51.812;4.622;2022-12-05T06:24:15;15.90;;;12.63;;
48241;SDS011;34041;51.812;4.622;2022-12-05T06:27:16;15.18;;;12.63;;
48241;SDS011;34041;51.812;4.622;2022-12-05T06:30:16;15.38;;;12.10;;
48241;SDS011;34041;51.812;4.622;2022-12-05T06:33:16;18.17;;;13.93;;
48241;SDS011;34041;51.812;4.622;2022-12-05T06:36:18;16.80;;;12.75;;
48241;SDS011;34041;51.812;4.622;2022-12-05T06:39:18;18.05;;;13.40;;
48241;SDS011;34041;51.812;4.622;2022-12-05T06:42:19;17.90;;;13.40;;
48241;SDS011;34041;51.812;4.622;2022-12-05T06:45:22;14.27;;;12.20;;
48241;SDS011;34041;51.812;4.622;2022-12-05T06:48:22;15.40;;;12.93;;
48241;SDS011;34041;51.812;4.622;2022-12-05T06:51:22;14.32;;;11.90;;
48241;SDS011;34041;51.812;4.622;2022-12-05T06:54:23;16.15;;;13.30;;
48241;SDS011;34041;51.812;4.622;2022-12-05T06:57:23;15.55;;;11.90;;
48241;SDS011;34041;51.812;4.622;2022-12-05T07:00:23;13.27;;;10.47;;
48241;SDS011;34041;51.812;4.622;2022-12-05T07:03:42;14.75;;;11.82;;
48241;SDS011;34041;51.812;4.622;2022-12-05T07:06:43;14.80;;;12.93;;
48241;SDS011;34041;51.812;4.622;2022-12-05T07:09:44;17.20;;;13.05;;
48241;SDS011;34041;51.812;4.622;2022-12-05T07:12:45;16.17;;;13.23;;
48241;SDS011;34041;51.812;4.622;2022-12-05T07:15:45;14.70;;;11.70;;
48241;SDS011;34041;51.812;4.622;2022-12-05T07:18:47;15.32;;;12.57;;
48241;SDS011;34041;51.812;4.622;2022-12-05T07:21:47;14.60;;;11.45;;
48241;SDS011;34041;51.812;4.622;2022-12-05T07:24:47;15.73;;;11.90;;
48241;SDS011;34041;51.812;4.622;2022-12-05T07:27:49;15.27;;;12.70;;
48241;SDS011;34041;51.812;4.622;2022-12-05T07:31:00;13.80;;;11.73;;
48241;SDS011;34041;51.812;4.622;2022-12-05T07:34:00;13.57;;;11.18;;
48241;SDS011;34041;51.812;4.622;2022-12-05T07:37:00;15.13;;;13.37;;
48241;SDS011;34041;51.812;4.622;2022-12-05T07:40:00;15.82;;;11.77;;
48241;SDS011;34041;51.812;4.622;2022-12-05T07:43:01;16.30;;;12.50;;
48241;SDS011;34041;51.812;4.622;2022-12-05T07:46:02;13.37;;;11.27;;
48241;SDS011;34041;51.812;4.622;2022-12-05T07:49:02;16.13;;;11.80;;
48241;SDS011;34041;51.812;4.622;2022-12-05T07:52:02;17.00;;;13.05;;
48241;SDS011;34041;51.812;4.622;2022-12-05T07:55:03;15.65;;;11.55;;
48241;SDS011;34041;51.812;4.622;2022-12-05T07:58:03;14.50;;;11.32;;
48241;SDS011;34041;51.812;4.622;2022-12-05T08:04:07;14.63;;;11.90;;
48241;SDS011;34041;51.812;4.622;2022-12-05T08:07:09;14.47;;;11.17;;
48241;SDS011;34041;51.812;4.622;2022-12-05T08:10:09;15.82;;;12.70;;
48241;SDS011;34041;51.812;4.622;2022-12-05T08:13:09;15.40;;;13.25;;
48241;SDS011;34041;51.812;4.622;2022-12-05T08:16:10;15.73;;;11.87;;
48241;SDS011;34041;51.812;4.622;2022-12-05T08:19:11;15.23;;;11.70;;
48241;SDS011;34041;51.812;4.622;2022-12-05T08:22:12;15.73;;;13.00;;
48241;SDS011;34041;51.812;4.622;2022-12-05T08:25:12;14.13;;;11.47;;
48241;SDS011;34041;51.812;4.622;2022-12-05T08:28:12;17.27;;;12.67;;
48241;SDS011;34041;51.812;4.622;2022-12-05T08:31:14;16.43;;;11.57;;
48241;SDS011;34041;51.812;4.622;2022-12-05T08:34:15;14.05;;;12.50;;
48241;SDS011;34041;51.812;4.622;2022-12-05T08:37:16;15.70;;;12.40;;
48241;SDS011;34041;51.812;4.622;2022-12-05T08:40:16;13.83;;;11.47;;
48241;SDS011;34041;51.812;4.622;2022-12-05T08:43:16;16.20;;;12.80;;
48241;SDS011;34041;51.812;4.622;2022-12-05T08:46:16;16.67;;;11.83;;
48241;SDS011;34041;51.812;4.622;2022-12-05T08:49:17;16.17;;;11.17;;
48241;SDS011;34041;51.812;4.622;2022-12-05T08:52:17;13.65;;;11.13;;
48241;SDS011;34041;51.812;4.622;2022-12-05T08:55:17;14.10;;;11.32;;
48241;SDS011;34041;51.812;4.622;2022-12-05T08:58:18;14.57;;;12.50;;
48241;SDS011;34041;51.812;4.622;2022-12-05T09:01:19;13.67;;;10.80;;
48241;SDS011;34041;51.812;4.622;2022-12-05T09:04:19;15.82;;;10.98;;
48241;SDS011;34041;51.812;4.622;2022-12-05T09:07:19;14.45;;;11.07;;
48241;SDS011;34041;51.812;4.622;2022-12-05T09:10:20;15.70;;;11.73;;
48241;SDS011;34041;51.812;4.622;2022-12-05T09:13:23;14.77;;;11.75;;
48241;SDS011;34041;51.812;4.622;2022-12-05T09:16:24;14.15;;;10.90;;
48241;SDS011;34041;51.812;4.622;2022-12-05T09:19:25;21.52;;;11.93;;
48241;SDS011;34041;51.812;4.622;2022-12-05T09:22:26;15.10;;;11.98;;
48241;SDS011;34041;51.812;4.622;2022-12-05T09:25:26;15.93;;;12.30;;
48241;SDS011;34041;51.812;4.622;2022-12-05T09:28:27;14.03;;;10.60;;
48241;SDS011;34041;51.812;4.622;2022-12-05T09:31:27;14.32;;;11.77;;
48241;SDS011;34041;51.812;4.622;2022-12-05T09:34:29;15.07;;;11.95;;
48241;SDS011;34041;51.812;4.622;2022-12-05T09:37:30;14.10;;;10.82;;
48241;SDS011;34041;51.812;4.622;2022-12-05T09:40:30;14.07;;;10.63;;
48241;SDS011;34041;51.812;4.622;2022-12-05T09:44:19;14.00;;;10.38;;
48241;SDS011;34041;51.812;4.622;2022-12-05T09:46:51;13.73;;;11.18;;
48241;SDS011;34041;51.812;4.622;2022-12-05T09:49:56;15.02;;;10.85;;
48241;SDS011;34041;51.812;4.622;2022-12-05T09:53:31;15.95;;;10.38;;
48241;SDS011;34041;51.812;4.622;2022-12-05T09:59:24;12.00;;;10.17;;
48241;SDS011;34041;51.812;4.622;2022-12-05T10:02:30;14.80;;;11.10;;
48241;SDS011;34041;51.812;4.622;2022-12-05T10:05:39;12.32;;;9.73;;
48241;SDS011;34041;51.812;4.622;2022-12-05T10:15:13;11.65;;;9.45;;
48241;SDS011;34041;51.812;4.622;2022-12-05T10:18:49;11.73;;;9.15;;
48241;SDS011;34041;51.812;4.622;2022-12-05T10:22:01;11.20;;;9.45;;
48241;SDS011;34041;51.812;4.622;2022-12-05T10:25:03;12.85;;;9.75;;
48241;SDS011;34041;51.812;4.622;2022-12-05T10:28:05;13.45;;;9.45;;
48241;SDS011;34041;51.812;4.622;2022-12-05T10:31:12;12.15;;;9.35;;
48241;SDS011;34041;51.812;4.622;2022-12-05T10:34:26;10.88;;;7.78;;
48241;SDS011;34041;51.812;4.622;2022-12-05T10:37:28;11.50;;;8.65;;
48241;SDS011;34041;51.812;4.622;2022-12-05T10:40:32;9.18;;;8.18;;
48241;SDS011;34041;51.812;4.622;2022-12-05T10:43:33;10.90;;;8.50;;
48241;SDS011;34041;51.812;4.622;2022-12-05T10:46:34;10.63;;;8.48;;
48241;SDS011;34041;51.812;4.622;2022-12-05T10:49:35;10.47;;;9.37;;
48241;SDS011;34041;51.812;4.622;2022-12-05T10:52:35;11.07;;;8.45;;
48241;SDS011;34041;51.812;4.622;2022-12-05T10:55:39;10.73;;;8.30;;
48241;SDS011;34041;51.812;4.622;2022-12-05T10:58:41;9.45;;;7.50;;
48241;SDS011;34041;51.812;4.622;2022-12-05T11:01:54;8.90;;;7.22;;
48241;SDS011;34041;51.812;4.622;2022-12-05T11:04:55;8.57;;;7.55;;
48241;SDS011;34041;51.812;4.622;2022-12-05T11:07:57;10.35;;;8.02;;
48241;SDS011;34041;51.812;4.622;2022-12-05T11:11:01;10.80;;;8.05;;
48241;SDS011;34041;51.812;4.622;2022-12-05T11:14:03;10.23;;;8.85;;
48241;SDS011;34041;51.812;4.622;2022-12-05T11:17:04;9.77;;;7.35;;
48241;SDS011;34041;51.812;4.622;2022-12-05T11:20:46;10.00;;;8.57;;
48241;SDS011;34041;51.812;4.622;2022-12-05T11:23:28;9.60;;;7.35;;
48241;SDS011;34041;51.812;4.622;2022-12-05T11:26:33;11.57;;;8.23;;
48241;SDS011;34041;51.812;4.622;2022-12-05T11:29:37;10.95;;;7.80;;
48241;SDS011;34041;51.812;4.622;2022-12-05T11:32:37;14.30;;;8.23;;
48241;SDS011;34041;51.812;4.622;2022-12-05T11:35:38;11.40;;;8.13;;
48241;SDS011;34041;51.812;4.622;2022-12-05T11:38:39;10.30;;;7.93;;
48241;SDS011;34041;51.812;4.622;2022-12-05T11:51:06;8.60;;;7.35;;
48241;SDS011;34041;51.812;4.622;2022-12-05T12:00:17;9.70;;;7.00;;
48241;SDS011;34041;51.812;4.622;2022-12-05T12:09:46;7.63;;;6.03;;
48241;SDS011;34041;51.812;4.622;2022-12-05T12:12:55;8.10;;;5.95;;
48241;SDS011;34041;51.812;4.622;2022-12-05T12:22:54;10.73;;;6.50;;
48241;SDS011;34041;51.812;4.622;2022-12-05T12:26:15;7.13;;;5.43;;
48241;SDS011;34041;51.812;4.622;2022-12-05T12:35:28;6.77;;;5.20;;
48241;SDS011;34041;51.812;4.622;2022-12-05T12:51:16;6.97;;;4.47;;
48241;SDS011;34041;51.812;4.622;2022-12-05T12:57:41;5.53;;;4.60;;
48241;SDS011;34041;51.812;4.622;2022-12-05T13:04:06;6.88;;;4.20;;
48241;SDS011;34041;51.812;4.622;2022-12-05T13:07:12;5.53;;;3.80;;
48241;SDS011;34041;51.812;4.622;2022-12-05T13:13:17;4.63;;;4.03;;
48241;SDS011;34041;51.812;4.622;2022-12-05T13:16:21;4.90;;;3.90;;
48241;SDS011;34041;51.812;4.622;2022-12-05T13:19:30;4.25;;;3.38;;
48241;SDS011;34041;51.812;4.622;2022-12-05T13:22:36;5.57;;;3.25;;
48241;SDS011;34041;51.812;4.622;2022-12-05T13:25:36;5.63;;;3.47;;
48241;SDS011;34041;51.812;4.622;2022-12-05T13:29:00;5.25;;;4.07;;
48241;SDS011;34041;51.812;4.622;2022-12-05T13:32:02;5.40;;;3.42;;
48241;SDS011;34041;51.812;4.622;2022-12-05T13:35:11;6.10;;;4.00;;
48241;SDS011;34041;51.812;4.622;2022-12-05T13:38:36;4.68;;;3.75;;
48241;SDS011;34041;51.812;4.622;2022-12-05T13:41:57;4.53;;;3.38;;
48241;SDS011;34041;51.812;4.622;2022-12-05T13:45:16;7.82;;;3.55;;
48241;SDS011;34041;51.812;4.622;2022-12-05T13:48:19;5.53;;;3.40;;
48241;SDS011;34041;51.812;4.622;2022-12-05T13:51:21;3.60;;;3.08;;
48241;SDS011;34041;51.812;4.622;2022-12-05T13:54:24;5.32;;;4.13;;
48241;SDS011;34041;51.812;4.622;2022-12-05T14:00:37;5.20;;;3.50;;
48241;SDS011;34041;51.812;4.622;2022-12-05T14:09:48;4.43;;;3.47;;
48241;SDS011;34041;51.812;4.622;2022-12-05T14:15:53;4.97;;;3.17;;
48241;SDS011;34041;51.812;4.622;2022-12-05T14:25:21;5.95;;;3.70;;
48241;SDS011;34041;51.812;4.622;2022-12-05T14:34:37;6.60;;;3.35;;
48241;SDS011;34041;51.812;4.622;2022-12-05T14:37:51;5.10;;;3.20;;
48241;SDS011;34041;51.812;4.622;2022-12-05T14:40:52;4.95;;;3.70;;
48241;SDS011;34041;51.812;4.622;2022-12-05T14:43:52;4.70;;;3.70;;
48241;SDS011;34041;51.812;4.622;2022-12-05T14:46:53;5.78;;;3.67;;
48241;SDS011;34041;51.812;4.622;2022-12-05T15:02:26;5.10;;;3.20;;
48241;SDS011;34041;51.812;4.622;2022-12-05T15:05:28;4.80;;;3.47;;
48241;SDS011;34041;51.812;4.622;2022-12-05T15:08:29;4.88;;;2.80;;
48241;SDS011;34041;51.812;4.622;2022-12-05T15:11:31;5.85;;;3.60;;
48241;SDS011;34041;51.812;4.622;2022-12-05T15:14:33;5.20;;;4.00;;
48241;SDS011;34041;51.812;4.622;2022-12-05T15:17:43;5.18;;;3.78;;
48241;SDS011;34041;51.812;4.622;2022-12-05T15:24:00;5.72;;;4.32;;
48241;SDS011;34041;51.812;4.622;2022-12-05T15:27:00;4.90;;;3.70;;
48241;SDS011;34041;51.812;4.622;2022-12-05T15:30:02;4.60;;;3.40;;
48241;SDS011;34041;51.812;4.622;2022-12-05T15:33:02;5.18;;;3.25;;
48241;SDS011;34041;51.812;4.622;2022-12-05T15:36:03;5.50;;;3.65;;
48241;SDS011;34041;51.812;4.622;2022-12-05T15:39:05;4.75;;;3.40;;
48241;SDS011;34041;51.812;4.622;2022-12-05T15:42:08;7.95;;;4.50;;
48241;SDS011;34041;51.812;4.622;2022-12-05T15:48:13;5.03;;;3.30;;
48241;SDS011;34041;51.812;4.622;2022-12-05T15:51:14;6.28;;;3.58;;
48241;SDS011;34041;51.812;4.622;2022-12-05T15:54:15;4.83;;;3.17;;
48241;SDS011;34041;51.812;4.622;2022-12-05T15:57:18;5.03;;;3.35;;
48241;SDS011;34041;51.812;4.622;2022-12-05T16:00:19;4.80;;;3.67;;
48241;SDS011;34041;51.812;4.622;2022-12-05T16:03:31;5.18;;;3.50;;
48241;SDS011;34041;51.812;4.622;2022-12-05T16:06:38;6.68;;;3.72;;
48241;SDS011;34041;51.812;4.622;2022-12-05T16:09:41;4.72;;;3.47;;
48241;SDS011;34041;51.812;4.622;2022-12-05T16:12:41;6.50;;;3.90;;
48241;SDS011;34041;51.812;4.622;2022-12-05T16:15:46;4.82;;;3.15;;
48241;SDS011;34041;51.812;4.622;2022-12-05T16:18:54;4.80;;;3.40;;
48241;SDS011;34041;51.812;4.622;2022-12-05T16:22:37;5.60;;;4.13;;
48241;SDS011;34041;51.812;4.622;2022-12-05T16:25:23;4.03;;;2.85;;
48241;SDS011;34041;51.812;4.622;2022-12-05T16:28:23;7.00;;;3.67;;
48241;SDS011;34041;51.812;4.622;2022-12-05T16:31:24;6.00;;;3.30;;
48241;SDS011;34041;51.812;4.622;2022-12-05T16:34:24;5.50;;;3.63;;
48241;SDS011;34041;51.812;4.622;2022-12-05T16:37:27;3.60;;;2.80;;
48241;SDS011;34041;51.812;4.622;2022-12-05T16:40:28;5.38;;;3.03;;
48241;SDS011;34041;51.812;4.622;2022-12-05T16:49:35;5.13;;;3.05;;
48241;SDS011;34041;51.812;4.622;2022-12-05T16:52:35;5.00;;;3.08;;
48241;SDS011;34041;51.812;4.622;2022-12-05T16:55:35;5.27;;;3.57;;
48241;SDS011;34041;51.812;4.622;2022-12-05T16:58:36;5.28;;;3.20;;
48241;SDS011;34041;51.812;4.622;2022-12-05T17:01:36;5.77;;;3.40;;
48241;SDS011;34041;51.812;4.622;2022-12-05T17:04:37;7.13;;;3.33;;
48241;SDS011;34041;51.812;4.622;2022-12-05T17:07:37;4.63;;;2.70;;
48241;SDS011;34041;51.812;4.622;2022-12-05T17:10:38;4.10;;;2.93;;
48241;SDS011;34041;51.812;4.622;2022-12-05T17:13:38;4.78;;;2.97;;
48241;SDS011;34041;51.812;4.622;2022-12-05T17:16:39;3.42;;;2.60;;
48241;SDS011;34041;51.812;4.622;2022-12-05T17:19:39;5.97;;;3.53;;
48241;SDS011;34041;51.812;4.622;2022-12-05T17:22:39;4.15;;;3.22;;
48241;SDS011;34041;51.812;4.622;2022-12-05T17:25:52;4.45;;;2.67;;
48241;SDS011;34041;51.812;4.622;2022-12-05T17:28:53;3.58;;;2.75;;
48241;SDS011;34041;51.812;4.622;2022-12-05T17:31:53;5.20;;;3.47;;
48241;SDS011;34041;51.812;4.622;2022-12-05T17:34:53;3.83;;;2.83;;
48241;SDS011;34041;51.812;4.622;2022-12-05T17:37:54;5.13;;;3.13;;
48241;SDS011;34041;51.812;4.622;2022-12-05T17:40:54;4.70;;;2.90;;
48241;SDS011;34041;51.812;4.622;2022-12-05T17:43:54;4.13;;;3.07;;
48241;SDS011;34041;51.812;4.622;2022-12-05T17:46:54;4.63;;;2.67;;
48241;SDS011;34041;51.812;4.622;2022-12-05T17:49:54;3.58;;;2.72;;
48241;SDS011;34041;51.812;4.622;2022-12-05T17:52:55;5.90;;;3.57;;
48241;SDS011;34041;51.812;4.622;2022-12-05T17:55:57;5.25;;;2.97;;
48241;SDS011;34041;51.812;4.622;2022-12-05T17:58:57;3.30;;;2.60;;
48241;SDS011;34041;51.812;4.622;2022-12-05T18:01:57;5.63;;;3.40;;
48241;SDS011;34041;51.812;4.622;2022-12-05T18:04:57;4.30;;;2.85;;
48241;SDS011;34041;51.812;4.622;2022-12-05T18:07:58;3.95;;;2.78;;
48241;SDS011;34041;51.812;4.622;2022-12-05T18:10:58;4.85;;;3.03;;
48241;SDS011;34041;51.812;4.622;2022-12-05T18:13:58;6.17;;;3.90;;
48241;SDS011;34041;51.812;4.622;2022-12-05T18:16:59;4.35;;;2.83;;
48241;SDS011;34041;51.812;4.622;2022-12-05T18:20:00;4.07;;;3.10;;
48241;SDS011;34041;51.812;4.622;2022-12-05T18:23:00;4.80;;;3.45;;
48241;SDS011;34041;51.812;4.622;2022-12-05T18:26:01;5.20;;;2.67;;
48241;SDS011;34041;51.812;4.622;2022-12-05T18:29:02;4.13;;;3.38;;
48241;SDS011;34041;51.812;4.622;2022-12-05T18:32:02;4.07;;;2.97;;
48241;SDS011;34041;51.812;4.622;2022-12-05T18:35:03;4.38;;;3.15;;
48241;SDS011;34041;51.812;4.622;2022-12-05T18:38:08;4.20;;;3.10;;
48241;SDS011;34041;51.812;4.622;2022-12-05T18:41:09;4.68;;;3.67;;
48241;SDS011;34041;51.812;4.622;2022-12-05T18:44:09;5.87;;;3.90;;
48241;SDS011;34041;51.812;4.622;2022-12-05T18:47:09;4.90;;;3.08;;
48241;SDS011;34041;51.812;4.622;2022-12-05T18:50:10;3.80;;;2.90;;
48241;SDS011;34041;51.812;4.622;2022-12-05T18:53:10;4.68;;;3.42;;
48241;SDS011;34041;51.812;4.622;2022-12-05T18:56:10;4.13;;;2.90;;
48241;SDS011;34041;51.812;4.622;2022-12-05T18:59:14;3.65;;;2.65;;
48241;SDS011;34041;51.812;4.622;2022-12-05T19:02:15;4.13;;;2.97;;
48241;SDS011;34041;51.812;4.622;2022-12-05T19:05:15;5.60;;;3.15;;
48241;SDS011;34041;51.812;4.622;2022-12-05T19:08:15;4.45;;;3.20;;
48241;SDS011;34041;51.812;4.622;2022-12-05T19:11:16;4.50;;;2.60;;
48241;SDS011;34041;51.812;4.622;2022-12-05T19:14:17;5.03;;;2.88;;
48241;SDS011;34041;51.812;4.622;2022-12-05T19:17:18;4.57;;;3.15;;
48241;SDS011;34041;51.812;4.622;2022-12-05T19:20:18;3.53;;;2.53;;
48241;SDS011;34041;51.812;4.622;2022-12-05T19:23:18;3.73;;;3.10;;
48241;SDS011;34041;51.812;4.622;2022-12-05T19:26:19;3.70;;;2.63;;
48241;SDS011;34041;51.812;4.622;2022-12-05T19:29:19;3.67;;;2.60;;
48241;SDS011;34041;51.812;4.622;2022-12-05T19:32:19;3.80;;;2.90;;
48241;SDS011;34041;51.812;4.622;2022-12-05T19:35:20;5.17;;;3.00;;
48241;SDS011;34041;51.812;4.622;2022-12-05T19:38:20;3.63;;;2.37;;
48241;SDS011;34041;51.812;4.622;2022-12-05T19:41:21;3.33;;;2.53;;
48241;SDS011;34041;51.812;4.622;2022-12-05T19:44:22;4.55;;;2.90;;
48241;SDS011;34041;51.812;4.622;2022-12-05T19:47:22;4.80;;;2.70;;
48241;SDS011;34041;51.812;4.622;2022-12-05T19:50:22;4.53;;;2.55;;
48241;SDS011;34041;51.812;4.622;2022-12-05T19:53:23;3.65;;;2.28;;
48241;SDS011;34041;51.812;4.622;2022-12-05T19:56:24;3.95;;;2.70;;
48241;SDS011;34041;51.812;4.622;2022-12-05T19:59:25;3.75;;;2.60;;
48241;SDS011;34041;51.812;4.622;2022-12-05T20:02:25;4.10;;;2.50;;
48241;SDS011;34041;51.812;4.622;2022-12-05T20:05:25;3.93;;;2.73;;
48241;SDS011;34041;51.812;4.622;2022-12-05T20:08:27;4.53;;;2.60;;
48241;SDS011;34041;51.812;4.622;2022-12-05T20:11:27;3.47;;;2.30;;
48241;SDS011;34041;51.812;4.622;2022-12-05T20:14:28;4.40;;;2.80;;
48241;SDS011;34041;51.812;4.622;2022-12-05T20:17:28;3.05;;;2.22;;
48241;SDS011;34041;51.812;4.622;2022-12-05T20:20:29;4.15;;;2.78;;
48241;SDS011;34041;51.812;4.622;2022-12-05T20:23:29;3.57;;;2.23;;
48241;SDS011;34041;51.812;4.622;2022-12-05T20:26:31;3.22;;;2.65;;
48241;SDS011;34041;51.812;4.622;2022-12-05T20:29:32;3.50;;;2.20;;
48241;SDS011;34041;51.812;4.622;2022-12-05T20:32:32;3.67;;;2.60;;
48241;SDS011;34041;51.812;4.622;2022-12-05T20:35:36;3.70;;;2.67;;
48241;SDS011;34041;51.812;4.622;2022-12-05T20:38:36;4.47;;;3.15;;